sensor_id;sensor_type;location;lat;lon;timestamp;P1;durP1;ratioP1;P2;durP2;ratioP2
21448;SDS011;10885;52.830;13.788;2023-06-14T05:34:45;11.68;;;5.40;;
21448;SDS011;10885;52.830;13.788;2023-06-14T05:40:07;9.10;;;4.70;;
21448;SDS011;10885;52.830;13.788;2023-06-14T05:45:29;9.95;;;4.40;;
21448;SDS011;10885;52.830;13.788;2023-06-14T05:50:50;7.93;;;4.45;;
21448;SDS011;10885;52.830;13.788;2023-06-14T05:56:12;10.55;;;4.53;;
21448;SDS011;10885;52.830;13.788;2023-06-14T06:01:33;9.98;;;4.93;;
21448;SDS011;10885;52.830;13.788;2023-06-14T06:06:57;7.00;;;4.60;;
21448;SDS011;10885;52.830;13.788;2023-06-14T06:12:19;13.15;;;5.32;;
21448;SDS011;10885;52.830;13.788;2023-06-14T06:17:40;7.07;;;4.15;;
21448;SDS011;10885;52.830;13.788;2023-06-14T06:23:10;10.25;;;4.30;;
21448;SDS011;10885;52.830;13.788;2023-06-14T06:28:31;5.43;;;4.30;;
21448;SDS011;10885;52.830;13.788;2023-06-14T06:33:52;8.20;;;4.82;;
21448;SDS011;10885;52.830;13.788;2023-06-14T06:39:16;10.65;;;5.30;;
21448;SDS011;10885;52.830;13.788;2023-06-14T06:44:37;11.98;;;5.30;;
21448;SDS011;10885;52.830;13.788;2023-06-14T06:50:00;5.90;;;4.18;;
21448;SDS011;10885;52.830;13.788;2023-06-14T06:55:22;11.55;;;4.40;;
21448;SDS011;10885;52.830;13.788;2023-06-14T07:00:43;8.48;;;4.53;;
21448;SDS011;10885;52.830;13.788;2023-06-14T07:06:04;11.52;;;4.50;;
21448;SDS011;10885;52.830;13.788;2023-06-14T07:11:25;8.15;;;4.50;;
21448;SDS011;10885;52.830;13.788;2023-06-14T07:16:46;8.45;;;4.65;;
21448;SDS011;10885;52.830;13.788;2023-06-14T07:22:08;10.68;;;4.85;;
21448;SDS011;10885;52.830;13.788;2023-06-14T07:27:29;8.93;;;4.65;;
21448;SDS011;10885;52.830;13.788;2023-06-14T07:32:50;8.75;;;4.88;;
21448;SDS011;10885;52.830;13.788;2023-06-14T07:38:11;7.97;;;4.97;;
21448;SDS011;10885;52.830;13.788;2023-06-14T07:43:33;10.30;;;4.97;;
21448;SDS011;10885;52.830;13.788;2023-06-14T07:48:54;15.20;;;5.32;;
21448;SDS011;10885;52.830;13.788;2023-06-14T07:54:15;9.63;;;4.40;;
21448;SDS011;10885;52.830;13.788;2023-06-14T07:59:37;7.72;;;4.93;;
21448;SDS011;10885;52.830;13.788;2023-06-14T08:04:57;9.32;;;4.80;;
21448;SDS011;10885;52.830;13.788;2023-06-14T08:10:19;6.53;;;4.07;;
21448;SDS011;10885;52.830;13.788;2023-06-14T08:15:41;8.02;;;4.32;;
21448;SDS011;10885;52.830;13.788;2023-06-14T08:21:02;9.50;;;4.75;;
21448;SDS011;10885;52.830;13.788;2023-06-14T08:26:27;7.70;;;4.18;;
21448;SDS011;10885;52.830;13.788;2023-06-14T08:31:52;9.95;;;4.30;;
21448;SDS011;10885;52.830;13.788;2023-06-14T08:37:13;12.07;;;4.82;;
21448;SDS011;10885;52.830;13.788;2023-06-14T08:42:35;5.15;;;4.15;;
21448;SDS011;10885;52.830;13.788;2023-06-14T08:47:58;9.00;;;4.60;;
21448;SDS011;10885;52.830;13.788;2023-06-14T08:53:20;22.13;;;6.38;;
21448;SDS011;10885;52.830;13.788;2023-06-14T08:58:43;11.35;;;4.80;;
21448;SDS011;10885;52.830;13.788;2023-06-14T09:04:05;10.45;;;4.75;;
21448;SDS011;10885;52.830;13.788;2023-06-14T09:09:27;15.98;;;5.10;;
21448;SDS011;10885;52.830;13.788;2023-06-14T09:14:48;10.65;;;4.90;;
21448;SDS011;10885;52.830;13.788;2023-06-14T09:20:10;10.00;;;4.57;;
21448;SDS011;10885;52.830;13.788;2023-06-14T09:25:31;12.55;;;5.18;;
21448;SDS011;10885;52.830;13.788;2023-06-14T09:31:00;14.90;;;4.70;;
21448;SDS011;10885;52.830;13.788;2023-06-14T09:36:22;9.48;;;4.70;;
21448;SDS011;10885;52.830;13.788;2023-06-14T09:41:45;6.40;;;4.55;;
21448;SDS011;10885;52.830;13.788;2023-06-14T09:47:06;9.40;;;4.70;;
21448;SDS011;10885;52.830;13.788;2023-06-14T09:52:28;15.07;;;6.07;;
21448;SDS011;10885;52.830;13.788;2023-06-14T09:57:50;7.80;;;4.72;;
21448;SDS011;10885;52.830;13.788;2023-06-14T10:03:14;186.50;;;28.10;;
21448;SDS011;10885;52.830;13.788;2023-06-14T10:08:41;13.25;;;4.55;;
21448;SDS011;10885;52.830;13.788;2023-06-14T10:14:05;14.48;;;5.43;;
21448;SDS011;10885;52.830;13.788;2023-06-14T10:19:32;13.50;;;5.22;;
21448;SDS011;10885;52.830;13.788;2023-06-14T10:24:59;8.70;;;4.50;;
21448;SDS011;10885;52.830;13.788;2023-06-14T10:30:25;7.97;;;4.30;;
21448;SDS011;10885;52.830;13.788;2023-06-14T10:35:46;10.35;;;4.65;;
21448;SDS011;10885;52.830;13.788;2023-06-14T10:41:08;10.30;;;4.97;;
21448;SDS011;10885;52.830;13.788;2023-06-14T10:46:29;9.95;;;4.55;;
21448;SDS011;10885;52.830;13.788;2023-06-14T10:51:51;8.18;;;4.88;;
21448;SDS011;10885;52.830;13.788;2023-06-14T10:57:13;9.45;;;4.40;;
21448;SDS011;10885;52.830;13.788;2023-06-14T11:14:24;14.60;;;4.30;;
21448;SDS011;10885;52.830;13.788;2023-06-14T11:19:45;12.02;;;4.43;;
21448;SDS011;10885;52.830;13.788;2023-06-14T11:25:08;16.65;;;4.38;;
21448;SDS011;10885;52.830;13.788;2023-06-14T11:30:30;10.63;;;3.95;;
21448;SDS011;10885;52.830;13.788;2023-06-14T11:35:51;17.45;;;4.82;;
21448;SDS011;10885;52.830;13.788;2023-06-14T11:41:12;8.25;;;4.25;;
21448;SDS011;10885;52.830;13.788;2023-06-14T11:46:34;11.18;;;4.07;;
21448;SDS011;10885;52.830;13.788;2023-06-14T11:51:56;9.18;;;4.20;;
21448;SDS011;10885;52.830;13.788;2023-06-14T11:57:17;9.45;;;3.90;;
21448;SDS011;10885;52.830;13.788;2023-06-14T12:02:39;6.93;;;4.15;;
21448;SDS011;10885;52.830;13.788;2023-06-14T12:08:04;10.82;;;4.15;;
21448;SDS011;10885;52.830;13.788;2023-06-14T12:13:28;8.50;;;3.65;;
21448;SDS011;10885;52.830;13.788;2023-06-14T12:18:49;5.90;;;3.85;;
21448;SDS011;10885;52.830;13.788;2023-06-14T12:24:11;13.70;;;4.15;;
21448;SDS011;10885;52.830;13.788;2023-06-14T12:29:32;14.65;;;4.57;;
21448;SDS011;10885;52.830;13.788;2023-06-14T12:34:54;8.23;;;3.78;;
21448;SDS011;10885;52.830;13.788;2023-06-14T12:40:15;8.88;;;3.70;;
21448;SDS011;10885;52.830;13.788;2023-06-14T12:45:36;9.55;;;4.28;;
21448;SDS011;10885;52.830;13.788;2023-06-14T12:50:58;14.18;;;4.00;;
21448;SDS011;10885;52.830;13.788;2023-06-14T12:56:19;16.60;;;4.68;;
21448;SDS011;10885;52.830;13.788;2023-06-14T13:01:41;6.60;;;4.10;;
21448;SDS011;10885;52.830;13.788;2023-06-14T13:07:03;15.45;;;4.80;;
21448;SDS011;10885;52.830;13.788;2023-06-14T13:12:24;9.13;;;4.28;;
21448;SDS011;10885;52.830;13.788;2023-06-14T13:17:46;16.08;;;5.40;;
21448;SDS011;10885;52.830;13.788;2023-06-14T13:23:09;8.50;;;4.63;;
21448;SDS011;10885;52.830;13.788;2023-06-14T13:28:30;11.43;;;4.57;;
21448;SDS011;10885;52.830;13.788;2023-06-14T13:33:52;12.48;;;4.50;;
21448;SDS011;10885;52.830;13.788;2023-06-14T13:39:13;10.07;;;3.92;;
21448;SDS011;10885;52.830;13.788;2023-06-14T13:44:35;11.82;;;4.50;;
21448;SDS011;10885;52.830;13.788;2023-06-14T13:49:55;9.90;;;4.10;;
21448;SDS011;10885;52.830;13.788;2023-06-14T13:55:17;82.93;;;46.20;;
21448;SDS011;10885;52.830;13.788;2023-06-14T14:00:38;322.02;;;194.75;;
21448;SDS011;10885;52.830;13.788;2023-06-14T14:06:01;370.90;;;236.57;;
21448;SDS011;10885;52.830;13.788;2023-06-14T14:11:22;641.35;;;447.23;;
21448;SDS011;10885;52.830;13.788;2023-06-14T14:16:44;337.20;;;206.93;;
21448;SDS011;10885;52.830;13.788;2023-06-14T14:22:05;239.05;;;140.50;;
21448;SDS011;10885;52.830;13.788;2023-06-14T14:27:26;154.93;;;90.97;;
21448;SDS011;10885;52.830;13.788;2023-06-14T14:32:47;43.00;;;26.63;;
21448;SDS011;10885;52.830;13.788;2023-06-14T14:38:09;77.60;;;43.33;;
21448;SDS011;10885;52.830;13.788;2023-06-14T14:43:30;63.00;;;36.67;;
21448;SDS011;10885;52.830;13.788;2023-06-14T14:48:51;43.95;;;27.17;;
21448;SDS011;10885;52.830;13.788;2023-06-14T14:54:12;12.48;;;5.05;;
21448;SDS011;10885;52.830;13.788;2023-06-14T14:59:33;12.63;;;5.05;;
21448;SDS011;10885;52.830;13.788;2023-06-14T15:04:54;13.55;;;4.93;;
21448;SDS011;10885;52.830;13.788;2023-06-14T15:10:17;9.20;;;4.40;;
21448;SDS011;10885;52.830;13.788;2023-06-14T15:15:39;15.90;;;9.43;;
21448;SDS011;10885;52.830;13.788;2023-06-14T15:21:00;19.50;;;11.57;;
21448;SDS011;10885;52.830;13.788;2023-06-14T15:26:21;11.30;;;5.60;;
21448;SDS011;10885;52.830;13.788;2023-06-14T15:31:44;13.80;;;7.32;;
21448;SDS011;10885;52.830;13.788;2023-06-14T15:37:06;21.88;;;11.73;;
21448;SDS011;10885;52.830;13.788;2023-06-14T15:42:27;18.02;;;9.02;;
21448;SDS011;10885;52.830;13.788;2023-06-14T15:47:48;27.02;;;13.63;;
21448;SDS011;10885;52.830;13.788;2023-06-14T15:53:09;19.88;;;9.15;;
21448;SDS011;10885;52.830;13.788;2023-06-14T15:58:31;16.80;;;10.70;;
21448;SDS011;10885;52.830;13.788;2023-06-14T16:03:52;21.98;;;9.60;;
21448;SDS011;10885;52.830;13.788;2023-06-14T16:09:14;13.63;;;6.47;;
21448;SDS011;10885;52.830;13.788;2023-06-14T16:14:35;16.63;;;9.73;;
21448;SDS011;10885;52.830;13.788;2023-06-14T16:19:57;17.77;;;10.95;;
21448;SDS011;10885;52.830;13.788;2023-06-14T16:25:18;16.65;;;9.02;;
21448;SDS011;10885;52.830;13.788;2023-06-14T16:30:39;21.10;;;8.20;;
21448;SDS011;10885;52.830;13.788;2023-06-14T16:36:00;38.70;;;14.02;;
21448;SDS011;10885;52.830;13.788;2023-06-14T16:41:21;17.40;;;8.27;;
21448;SDS011;10885;52.830;13.788;2023-06-14T16:46:42;18.13;;;8.18;;
21448;SDS011;10885;52.830;13.788;2023-06-14T16:52:04;18.42;;;7.30;;
21448;SDS011;10885;52.830;13.788;2023-06-14T16:57:26;12.50;;;6.40;;
21448;SDS011;10885;52.830;13.788;2023-06-14T17:02:47;15.43;;;5.68;;
21448;SDS011;10885;52.830;13.788;2023-06-14T17:08:08;11.95;;;6.63;;
21448;SDS011;10885;52.830;13.788;2023-06-14T17:13:29;12.55;;;8.10;;
21448;SDS011;10885;52.830;13.788;2023-06-14T17:18:50;19.15;;;9.15;;
21448;SDS011;10885;52.830;13.788;2023-06-14T17:24:11;25.08;;;9.88;;
21448;SDS011;10885;52.830;13.788;2023-06-14T17:29:43;19.55;;;10.18;;
21448;SDS011;10885;52.830;13.788;2023-06-14T17:35:05;18.48;;;7.82;;
21448;SDS011;10885;52.830;13.788;2023-06-14T17:40:28;13.70;;;6.72;;
21448;SDS011;10885;52.830;13.788;2023-06-14T17:45:55;16.73;;;7.80;;
21448;SDS011;10885;52.830;13.788;2023-06-14T17:51:16;13.70;;;7.40;;
21448;SDS011;10885;52.830;13.788;2023-06-14T17:56:38;15.68;;;5.95;;
21448;SDS011;10885;52.830;13.788;2023-06-14T18:01:59;16.13;;;5.82;;
21448;SDS011;10885;52.830;13.788;2023-06-14T18:07:20;13.77;;;5.57;;
21448;SDS011;10885;52.830;13.788;2023-06-14T18:12:42;12.05;;;4.75;;
21448;SDS011;10885;52.830;13.788;2023-06-14T18:18:03;7.03;;;4.60;;
21448;SDS011;10885;52.830;13.788;2023-06-14T18:23:25;8.70;;;4.50;;
21448;SDS011;10885;52.830;13.788;2023-06-14T18:28:46;5.95;;;3.85;;
21448;SDS011;10885;52.830;13.788;2023-06-14T18:34:08;14.32;;;4.55;;
21448;SDS011;10885;52.830;13.788;2023-06-14T18:39:32;4.65;;;3.60;;
21448;SDS011;10885;52.830;13.788;2023-06-14T18:44:53;6.88;;;3.58;;
21448;SDS011;10885;52.830;13.788;2023-06-14T18:50:14;8.80;;;4.00;;
21448;SDS011;10885;52.830;13.788;2023-06-14T18:55:36;9.27;;;4.00;;
21448;SDS011;10885;52.830;13.788;2023-06-14T19:00:56;10.63;;;4.50;;
21448;SDS011;10885;52.830;13.788;2023-06-14T19:06:18;7.28;;;4.05;;
21448;SDS011;10885;52.830;13.788;2023-06-14T19:11:39;4.28;;;3.55;;
21448;SDS011;10885;52.830;13.788;2023-06-14T19:17:01;9.80;;;4.13;;
21448;SDS011;10885;52.830;13.788;2023-06-14T19:22:23;8.68;;;3.45;;
21448;SDS011;10885;52.830;13.788;2023-06-14T19:27:45;6.05;;;4.00;;
21448;SDS011;10885;52.830;13.788;2023-06-14T19:33:07;5.95;;;3.67;;
21448;SDS011;10885;52.830;13.788;2023-06-14T19:38:29;4.47;;;3.70;;
21448;SDS011;10885;52.830;13.788;2023-06-14T19:43:52;5.28;;;3.53;;
21448;SDS011;10885;52.830;13.788;2023-06-14T19:49:14;10.55;;;3.95;;
21448;SDS011;10885;52.830;13.788;2023-06-14T19:54:35;4.97;;;3.78;;
21448;SDS011;10885;52.830;13.788;2023-06-14T19:59:57;6.38;;;3.72;;
21448;SDS011;10885;52.830;13.788;2023-06-14T20:05:18;7.15;;;3.78;;
21448;SDS011;10885;52.830;13.788;2023-06-14T20:10:40;8.95;;;4.22;;
21448;SDS011;10885;52.830;13.788;2023-06-14T20:16:01;6.45;;;4.03;;
21448;SDS011;10885;52.830;13.788;2023-06-14T20:21:22;6.55;;;4.78;;
21448;SDS011;10885;52.830;13.788;2023-06-14T20:26:43;9.48;;;4.00;;
21448;SDS011;10885;52.830;13.788;2023-06-14T20:32:04;6.78;;;3.70;;
21448;SDS011;10885;52.830;13.788;2023-06-14T23:08:44;10.23;;;4.60;;
21448;SDS011;10885;52.830;13.788;2023-06-14T23:14:05;6.97;;;5.15;;
21448;SDS011;10885;52.830;13.788;2023-06-14T23:19:26;7.75;;;4.82;;
21448;SDS011;10885;52.830;13.788;2023-06-14T23:24:50;7.90;;;5.13;;
21448;SDS011;10885;52.830;13.788;2023-06-14T23:30:12;10.60;;;4.97;;
21448;SDS011;10885;52.830;13.788;2023-06-14T23:35:36;10.02;;;5.70;;
21448;SDS011;10885;52.830;13.788;2023-06-14T23:41:00;14.23;;;5.20;;
21448;SDS011;10885;52.830;13.788;2023-06-14T23:46:29;6.72;;;4.78;;
21448;SDS011;10885;52.830;13.788;2023-06-14T23:51:53;5.38;;;4.13;;
21448;SDS011;10885;52.830;13.788;2023-06-14T23:57:18;8.98;;;5.05;;
